Time;durP1;ratioP1;P1;durP2;ratioP2;P2;SDS_P1;SDS_P2;PMS_P1;PMS_P2;Temp;Humidity;BMP_temperature;BMP_pressure;BME280_temperature;BME280_humidity;BME280_pressure;Samples;Min_cycle;Max_cycle;Signal;HPM_P1;HPM_P2
2021/06/12 00:00:31;;;;;;;;;7.00;6.00;;;;;23.42;54.70;101822.81;4921141;28;48058;-94
2021/06/12 00:03:06;;;;;;;;;5.33;4.33;;;;;23.41;54.62;101820.16;4922648;28;45694;-94
2021/06/12 00:05:42;;;;;;;;;;;;;;;;;;;;;
2021/06/12 00:08:10;;;;;;;;;5.00;5.00;;;;;23.46;54.13;101831.72;4921167;28;62907;-92
2021/06/12 00:10:40;;;;;;;;;4.33;3.67;;;;;23.23;54.36;101795.44;4920555;28;47066;-93
2021/06/12 00:13:12;;;;;;;;;4.00;4.00;;;;;23.35;54.12;101822.03;4922051;28;45444;-93
2021/06/12 00:15:38;;;;;;;;;3.00;3.00;;;;;23.30;54.03;101825.72;4921106;28;45311;-92
2021/06/12 00:18:07;;;;;;;;;6.00;4.00;;;;;23.16;54.08;101817.94;4920848;28;45368;-93
2021/06/12 00:20:37;;;;;;;;;3.33;3.00;;;;;23.19;54.20;101829.50;4920403;28;47369;-93
2021/06/12 00:23:08;;;;;;;;;4.00;3.00;;;;;23.14;54.53;101831.38;4920298;28;45295;-95
2021/06/12 00:25:37;;;;;;;;;2.00;2.00;;;;;23.08;54.46;101828.78;4922559;28;45475;-93
2021/06/12 00:28:03;;;;;;;;;2.00;2.00;;;;;23.13;53.93;101837.66;4942239;28;44792;-91
2021/06/12 00:30:37;;;;;;;;;1.00;1.00;;;;;22.97;53.77;101819.16;4939853;28;46936;-91
2021/06/12 00:33:06;;;;;;;;;2.00;1.00;;;;;22.88;53.53;101813.97;4930635;28;45409;-90
2021/06/12 00:35:35;;;;;;;;;2.33;2.00;;;;;22.85;53.76;101822.03;4924971;28;45522;-91
2021/06/12 00:38:00;;;;;;;;;1.67;1.67;;;;;22.79;53.36;101834.66;4927495;28;45312;-93
2021/06/12 00:40:26;;;;;;;;;2.67;1.00;;;;;22.67;53.45;101818.78;4922750;28;46844;-94
2021/06/12 00:42:54;;;;;;;;;2.00;2.00;;;;;22.65;53.19;101818.75;4931244;28;44788;-93
2021/06/12 00:45:27;;;;;;;;;1.00;1.00;;;;;22.79;53.64;101849.84;4940495;28;44831;-92
2021/06/12 00:47:55;;;;;;;;;1.67;1.67;;;;;22.70;53.33;101841.94;4941568;28;45439;-92
2021/06/12 00:50:23;;;;;;;;;2.00;1.00;;;;;22.57;53.67;101831.38;4943523;28;47202;-94
2021/06/12 00:52:49;;;;;;;;;1.00;1.00;;;;;22.55;53.18;101836.78;4931591;28;45445;-92
2021/06/12 00:55:15;;;;;;;;;1.00;1.00;;;;;22.59;53.79;101847.47;4924026;28;45434;-94
2021/06/12 00:57:43;;;;;;;;;1.67;1.00;;;;;22.52;53.63;101839.53;4934873;28;44849;-94
2021/06/12 01:00:12;;;;;;;;;0.67;0.67;;;;;22.59;53.54;101859.03;4953218;28;47455;-93
2021/06/12 01:02:38;;;;;;;;;1.00;1.00;;;;;22.44;53.38;101838.75;4935545;28;44894;-94
2021/06/12 01:05:09;;;;;;;;;2.00;2.00;;;;;22.48;53.00;101844.94;4934686;28;45503;-93
2021/06/12 01:07:35;;;;;;;;;1.00;1.00;;;;;22.39;53.06;101837.91;4927587;28;45423;-93
2021/06/12 01:10:02;;;;;;;;;1.67;0.67;;;;;22.33;52.98;101830.88;4926599;28;46444;-92
2021/06/12 01:12:52;;;;;;;;;;;;;;;;;;;;;
2021/06/12 01:15:19;;;;;;;;;0.67;0.67;;;;;22.29;53.29;101837.19;4925034;28;68664;-94
2021/06/12 01:17:54;;;;;;;;;1.33;1.00;;;;;22.33;53.10;101841.59;4924214;28;45493;-94
2021/06/12 01:20:53;;;;;;;;;0.67;0.67;;;;;22.31;52.99;101846.97;4922795;28;47303;-93
2021/06/12 01:24:10;;;;;;;;;1.00;1.00;;;;;22.28;53.29;101838.97;4924211;28;45697;-93
2021/06/12 01:27:10;;;;;;;;;1.00;1.00;;;;;22.25;53.12;101839.00;4928022;28;45236;-92
2021/06/12 01:29:53;;;;;;;;;1.00;1.00;;;;;22.07;53.37;101814.25;4850196;29;45450;-94
2021/06/12 01:32:21;;;;;;;;;0.00;0.00;;;;;22.08;53.25;101818.69;4849504;29;47239;-94
2021/06/12 01:34:49;;;;;;;;;1.00;1.00;;;;;22.15;53.41;101846.28;4848741;29;45491;-93
2021/06/12 01:37:21;;;;;;;;;1.00;1.00;;;;;22.14;53.26;101846.31;4849512;29;45472;-93
2021/06/12 01:39:50;;;;;;;;;1.00;1.00;;;;;21.96;53.79;101821.53;4849372;28;45607;-94
2021/06/12 01:42:16;;;;;;;;;1.33;1.00;;;;;22.07;53.60;101845.50;4849475;29;47334;-92
2021/06/12 01:44:46;;;;;;;;;3.00;1.00;;;;;21.94;53.90;101824.25;4850194;29;45403;-91
2021/06/12 01:47:13;;;;;;;;;2.67;1.00;;;;;21.92;53.60;101819.81;4849505;29;45474;-93
2021/06/12 01:49:52;;;;;;;;;;;;;;;;;;;;;
2021/06/12 01:52:19;;;;;;;;;1.33;1.33;;;;;22.00;53.89;101852.72;4863398;29;74228;-92
2021/06/12 01:54:49;;;;;;;;;1.00;1.00;;;;;21.83;53.93;101821.69;4848896;29;45508;-93
2021/06/12 01:57:16;;;;;;;;;1.00;1.00;;;;;21.95;54.08;101833.16;4852705;29;45333;-91
2021/06/12 01:59:50;;;;;;;;;6.00;4.33;;;;;21.88;54.42;101828.78;4852751;29;45616;-92
2021/06/12 02:02:16;;;;;;;;;2.00;2.00;;;;;21.79;54.15;101824.41;4864518;29;46429;-93
2021/06/12 02:04:43;;;;;;;;;0.00;0.00;;;;;21.68;54.13;101820.06;4848653;29;45693;-93
2021/06/12 02:07:12;;;;;;;;;1.00;1.00;;;;;21.70;54.08;101823.59;4886436;29;45329;-91
2021/06/12 02:09:43;;;;;;;;;1.00;1.00;;;;;21.72;54.36;101842.34;4904112;29;45462;-94
2021/06/12 02:12:09;;;;;;;;;1.00;1.00;;;;;21.67;54.35;101836.13;4903295;29;47202;-94
2021/06/12 02:14:36;;;;;;;;;2.00;1.00;;;;;21.72;53.98;101853.91;4903336;29;45507;-93
2021/06/12 02:17:13;;;;;;;;;;;;;;;;;;;;;
2021/06/12 02:19:40;;;;;;;;;1.00;1.00;;;;;21.51;54.46;101829.16;4903069;29;64840;-94
2021/06/12 02:22:11;;;;;;;;;0.67;0.67;;;;;21.49;54.31;101835.47;4902537;29;47235;-92
2021/06/12 02:24:37;;;;;;;;;2.00;1.00;;;;;21.51;54.39;101847.03;4902486;29;45424;-92
2021/06/12 02:27:07;;;;;;;;;0.00;0.00;;;;;21.58;54.49;101862.09;4903861;29;45424;-91
2021/06/12 02:29:39;;;;;;;;;0.67;0.67;;;;;21.52;54.79;101863.06;4904266;28;45406;-91
2021/06/12 02:32:13;;;;;;;;;1.00;1.00;;;;;21.55;54.66;101872.84;4903965;28;46837;-91
2021/06/12 02:34:39;;;;;;;;;3.00;1.00;;;;;21.33;55.13;101848.09;4908544;29;45343;-91
2021/06/12 02:37:06;;;;;;;;;0.67;0.67;;;;;21.27;55.48;101851.72;4909920;29;44749;-92
2021/06/12 02:39:45;;;;;;;;;;;;;;;;;;;;;
2021/06/12 02:42:11;;;;;;;;;1.00;1.00;;;;;21.33;55.30;101866.81;4927970;28;74644;-92
2021/06/12 02:44:48;;;;;;;;;;;;;;;;;;;;;
2021/06/12 02:47:26;;;;;;;;;3.00;1.33;;;;;21.27;55.20;101862.41;4943449;28;68336;-92
2021/06/12 02:50:04;;;;;;;;;0.33;0.33;;;;;21.32;55.61;101884.63;4923085;28;45295;-92
2021/06/12 02:52:36;;;;;;;;;1.00;1.00;;;;;21.24;55.42;101866.00;4926649;28;47237;-92
2021/06/12 02:55:17;;;;;;;;;;;;;;;;;;;;;
2021/06/12 02:57:48;;;;;;;;;2.00;1.00;;;;;21.08;55.42;101841.19;4943654;28;68009;-92
2021/06/12 03:00:17;;;;;;;;;1.00;1.00;;;;;21.13;55.27;101846.53;4946729;28;45569;-91
2021/06/12 03:02:45;;;;;;;;;1.00;1.00;;;;;21.20;55.13;101863.38;4947519;28;47155;-93
2021/06/12 03:05:30;;;;;;;;;;;;;;;;;;;;;
2021/06/12 03:08:01;;;;;;;;;1.00;1.00;;;;;20.94;54.79;101834.16;4932187;28;67956;-95
2021/06/12 03:10:33;;;;;;;;;0.00;0.00;;;;;20.91;54.84;101849.34;4931116;28;45595;-93
2021/06/12 03:13:03;;;;;;;;;0.00;0.00;;;;;20.80;54.88;101836.06;4937601;28;48258;-93
2021/06/12 03:15:34;;;;;;;;;0.00;0.00;;;;;20.78;54.91;101836.06;4934405;28;45536;-91
2021/06/12 03:18:10;;;;;;;;;0.00;0.00;;;;;20.93;54.96;101867.13;4932411;28;45396;-93
2021/06/12 03:20:42;;;;;;;;;0.00;0.00;;;;;20.75;55.26;101835.22;4928916;28;45502;-93
2021/06/12 03:23:13;;;;;;;;;1.33;0.00;;;;;20.71;55.21;101832.56;4925359;28;47197;-93
2021/06/12 03:25:39;;;;;;;;;1.67;1.67;;;;;20.66;55.31;101837.06;4924773;28;45329;-94
2021/06/12 03:28:08;;;;;;;;;1.00;1.00;;;;;20.69;55.54;101850.38;4924383;28;45388;-93
2021/06/12 03:30:38;;;;;;;;;0.67;0.67;;;;;20.65;55.75;101851.31;4922488;28;45511;-94
2021/06/12 03:33:13;;;;;;;;;1.00;1.00;;;;;20.63;55.91;101849.53;4923361;28;47732;-93
2021/06/12 03:35:39;;;;;;;;;1.00;1.00;;;;;20.73;55.97;101874.41;4926062;28;45323;-93
2021/06/12 03:38:08;;;;;;;;;2.33;1.67;;;;;20.60;56.15;101864.69;4925303;28;45266;-93
2021/06/12 03:40:34;;;;;;;;;2.00;2.00;;;;;20.57;56.00;101854.03;4925231;28;45300;-92
2021/06/12 03:43:04;;;;;;;;;2.67;2.00;;;;;20.60;56.50;101858.47;4923736;28;47232;-94
2021/06/12 03:45:31;;;;;;;;;1.00;1.00;;;;;20.58;56.47;101870.97;4922299;28;45356;-93
2021/06/12 03:48:02;;;;;;;;;2.00;2.00;;;;;20.48;56.88;101854.97;4927236;28;45315;-93
2021/06/12 03:50:36;;;;;;;;;3.00;2.00;;;;;20.50;57.09;101854.97;4924560;28;45436;-94
2021/06/12 03:53:08;;;;;;;;;2.67;2.00;;;;;20.42;56.83;101844.34;4923894;28;47146;-93
2021/06/12 03:55:34;;;;;;;;;2.00;2.00;;;;;20.41;57.29;101853.22;4921801;28;45423;-93
2021/06/12 03:58:00;;;;;;;;;2.33;2.33;;;;;20.45;57.07;101864.81;4921786;28;45490;-93
2021/06/12 04:00:31;;;;;;;;;4.67;2.00;;;;;20.38;56.93;101858.59;4937587;28;45461;-93
2021/06/12 04:03:04;;;;;;;;;2.00;2.00;;;;;20.53;56.99;101886.09;4921447;28;47383;-92
2021/06/12 04:05:37;;;;;;;;;2.00;2.00;;;;;20.40;57.01;101875.50;4920956;28;45910;-92
2021/06/12 04:08:03;;;;;;;;;3.00;1.33;;;;;20.45;57.07;101884.34;4905505;28;45422;-94
2021/06/12 04:10:34;;;;;;;;;4.00;3.00;;;;;20.39;57.00;101876.38;4924800;28;45558;-91
2021/06/12 04:13:00;;;;;;;;;2.33;2.00;;;;;20.50;57.33;101899.47;4920362;28;48436;-92
2021/06/12 04:15:28;;;;;;;;;2.00;2.00;;;;;20.40;57.36;101883.50;4920331;28;45655;-90
2021/06/12 04:18:01;;;;;;;;;2.67;2.67;;;;;20.47;57.43;101895.91;4922015;28;44820;-90
2021/06/12 04:20:37;;;;;;;;;2.67;2.33;;;;;20.37;57.37;101880.84;4920979;28;45598;-92
2021/06/12 04:23:03;;;;;;;;;2.00;2.00;;;;;20.29;57.37;101872.88;4920919;28;47886;-90
2021/06/12 04:25:38;;;;;;;;;1.33;1.33;;;;;20.21;57.03;101864.03;4919330;28;45826;-92
2021/06/12 04:28:05;;;;;;;;;2.00;2.00;;;;;20.39;57.42;101896.88;4900636;28;44772;-92
2021/06/12 04:30:31;;;;;;;;;3.00;2.00;;;;;20.34;57.46;101895.13;4903690;29;45410;-89
2021/06/12 04:32:57;;;;;;;;;2.00;2.00;;;;;20.33;57.60;101901.34;4903473;28;45997;-88
2021/06/12 04:35:23;;;;;;;;;3.00;3.00;;;;;20.32;57.69;101896.00;4904393;29;45198;-89
2021/06/12 04:37:48;;;;;;;;;1.00;0.00;;;;;20.29;57.55;101899.59;4907333;29;45235;-87
2021/06/12 04:40:14;;;;;;;;;2.00;2.00;;;;;20.24;57.86;101894.25;4910998;29;45465;-89
2021/06/12 04:42:41;;;;;;;;;1.00;1.00;;;;;20.25;57.78;101901.38;4906361;29;46639;-89
2021/06/12 04:45:07;;;;;;;;;2.33;2.33;;;;;20.24;58.06;101902.25;4909253;29;45393;-85
2021/06/12 04:47:33;;;;;;;;;2.67;2.67;;;;;20.29;57.99;101906.69;4904998;29;45351;-84
2021/06/12 04:49:59;;;;;;;;;5.00;3.00;;;;;20.30;57.85;101904.03;4905350;28;45383;-89
2021/06/12 04:52:25;;;;;;;;;3.00;3.00;;;;;20.28;57.83;101895.16;4903654;29;46469;-89
2021/06/12 04:54:51;;;;;;;;;3.00;2.33;;;;;20.25;58.09;101898.72;4903266;29;45216;-89
2021/06/12 04:57:17;;;;;;;;;3.67;3.67;;;;;20.27;58.02;101905.81;4903719;29;45335;-89
2021/06/12 04:59:42;;;;;;;;;2.00;2.00;;;;;20.22;58.22;101909.41;4903825;29;45708;-90
2021/06/12 05:02:08;;;;;;;;;4.00;3.00;;;;;20.23;58.23;101919.19;4909762;29;46320;-87
2021/06/12 05:04:33;;;;;;;;;3.00;3.00;;;;;20.21;58.29;101910.31;4905851;29;45166;-87
2021/06/12 05:06:58;;;;;;;;;3.67;3.67;;;;;20.21;58.50;101909.41;4903554;29;45280;-88
2021/06/12 05:09:24;;;;;;;;;4.67;3.67;;;;;20.19;58.42;101905.88;4903319;29;45184;-89
2021/06/12 05:11:50;;;;;;;;;5.00;2.33;;;;;20.19;58.51;101914.75;4907234;29;45361;-87
2021/06/12 05:14:16;;;;;;;;;4.67;3.00;;;;;20.12;58.89;101900.53;4906870;29;45319;-88
2021/06/12 05:16:42;;;;;;;;;3.00;3.00;;;;;20.18;58.87;101912.09;4903779;29;45310;-89
2021/06/12 05:19:07;;;;;;;;;2.33;1.67;;;;;20.16;58.69;101912.09;4900493;28;45547;-88
2021/06/12 05:21:36;;;;;;;;;5.33;2.33;;;;;20.16;58.94;101906.75;4902745;29;45391;-83
2021/06/12 05:24:01;;;;;;;;;4.00;4.00;;;;;20.14;58.55;101911.22;4903282;29;45402;-87
2021/06/12 05:26:27;;;;;;;;;4.33;4.00;;;;;20.12;58.93;101907.66;4902725;29;45221;-86
2021/06/12 05:28:52;;;;;;;;;3.33;2.00;;;;;20.12;58.86;101905.88;4902743;29;45372;-83
2021/06/12 05:31:18;;;;;;;;;3.00;3.00;;;;;20.12;58.84;101910.31;4902464;29;45343;-85
2021/06/12 05:33:44;;;;;;;;;2.33;1.00;;;;;20.12;58.73;101900.53;4902614;29;45211;-89
2021/06/12 05:36:10;;;;;;;;;3.00;3.00;;;;;20.11;59.05;101896.13;4902611;29;45350;-85
2021/06/12 05:38:36;;;;;;;;;2.33;1.67;;;;;20.11;58.81;101896.13;4902345;29;45406;-85
2021/06/12 05:41:02;;;;;;;;;2.67;2.67;;;;;20.12;59.06;101910.31;4902379;29;46631;-92
2021/06/12 05:43:27;;;;;;;;;3.00;3.00;;;;;20.13;58.93;101906.78;4901408;29;45519;-86
2021/06/12 05:45:53;;;;;;;;;3.00;3.00;;;;;20.13;58.92;101914.78;4903325;29;45275;-86
2021/06/12 05:48:18;;;;;;;;;3.00;3.00;;;;;20.12;58.96;101913.91;4902422;29;45437;-86
2021/06/12 05:50:44;;;;;;;;;3.67;2.00;;;;;20.12;58.99;101911.22;4902112;29;45590;-86
2021/06/12 05:53:09;;;;;;;;;4.00;2.33;;;;;20.12;58.68;101916.56;4902087;29;45250;-84
2021/06/12 05:55:34;;;;;;;;;5.67;3.00;;;;;20.09;58.95;101905.03;4902368;28;45456;-85
2021/06/12 05:58:00;;;;;;;;;2.67;2.67;;;;;20.14;59.10;101919.22;4901153;29;45326;-86
2021/06/12 06:00:26;;;;;;;;;3.33;2.00;;;;;20.10;59.39;101915.69;4901715;29;45534;-86
2021/06/12 06:02:51;;;;;;;;;4.00;4.00;;;;;20.16;59.18;101916.56;4901887;29;45277;-88
2021/06/12 06:05:17;;;;;;;;;1.33;1.33;;;;;20.17;58.97;101919.22;4900441;29;45610;-87
2021/06/12 06:07:42;;;;;;;;;3.00;2.33;;;;;20.17;58.94;101923.66;4902392;29;45312;-84
2021/06/12 06:10:08;;;;;;;;;3.67;2.67;;;;;20.19;58.80;101921.88;4901773;28;45811;-86
2021/06/12 06:12:35;;;;;;;;;3.00;3.00;;;;;20.10;58.95;101905.00;4901958;29;45410;-86
2021/06/12 06:15:00;;;;;;;;;3.00;3.00;;;;;20.20;59.03;101923.66;4901646;29;45465;-84
2021/06/12 06:17:26;;;;;;;;;3.00;3.00;;;;;20.22;59.00;101925.41;4901882;29;45289;-86
2021/06/12 06:19:51;;;;;;;;;2.00;2.00;;;;;20.21;58.80;101917.41;4901650;29;45410;-86
2021/06/12 06:22:17;;;;;;;;;3.00;3.00;;;;;20.15;59.14;101905.00;4903057;29;45566;-86
2021/06/12 06:24:42;;;;;;;;;3.00;3.00;;;;;20.27;58.79;101922.72;4903428;29;45417;-86
2021/06/12 06:27:08;;;;;;;;;3.33;3.33;;;;;20.21;59.04;101918.31;4904025;29;45433;-86
2021/06/12 06:29:33;;;;;;;;;3.00;3.00;;;;;20.22;59.14;101912.06;4903202;29;45474;-86
2021/06/12 06:31:59;;;;;;;;;4.33;3.00;;;;;20.31;59.01;101934.28;4900331;29;45356;-83
2021/06/12 06:34:24;;;;;;;;;5.00;2.67;;;;;20.27;58.85;101919.16;4901864;29;45267;-84
2021/06/12 06:36:50;;;;;;;;;3.00;2.67;;;;;20.33;58.76;101927.16;4902608;29;45379;-87
2021/06/12 06:39:15;;;;;;;;;7.00;3.67;;;;;20.35;58.76;101934.25;4903575;29;45366;-84
2021/06/12 06:41:40;;;;;;;;;3.00;3.00;;;;;20.38;58.97;101946.72;4901594;29;45277;-88
2021/06/12 06:44:06;;;;;;;;;4.00;4.00;;;;;20.42;58.69;101947.59;4901889;29;45528;-86
2021/06/12 06:46:31;;;;;;;;;2.67;2.00;;;;;20.39;59.07;101932.47;4901969;29;45368;-88
2021/06/12 06:48:56;;;;;;;;;4.67;4.00;;;;;20.42;58.92;101939.56;4902667;29;45515;-87
2021/06/12 06:51:22;;;;;;;;;2.67;2.67;;;;;20.45;59.07;101943.13;4901450;29;45287;-86
2021/06/12 06:53:47;;;;;;;;;5.00;2.33;;;;;20.52;59.46;101953.78;4901882;29;45287;-81
2021/06/12 06:56:13;;;;;;;;;3.00;3.00;;;;;20.52;58.44;101948.44;4901232;29;45204;-89
2021/06/12 06:58:38;;;;;;;;;4.00;4.00;;;;;20.51;58.61;101942.22;4901143;29;46352;-85
2021/06/12 07:01:04;;;;;;;;;4.33;4.33;;;;;20.46;58.39;101933.31;4901027;28;46006;-86
2021/06/12 07:03:29;;;;;;;;;5.00;5.00;;;;;20.47;58.59;101935.97;4901018;29;45759;-91
2021/06/12 07:05:55;;;;;;;;;4.67;3.00;;;;;20.48;58.40;101934.19;4901105;29;45580;-89
2021/06/12 07:08:20;;;;;;;;;5.67;5.00;;;;;20.63;58.47;101943.03;4901947;29;46164;-90
2021/06/12 07:10:46;;;;;;;;;4.00;3.00;;;;;20.51;58.62;101935.97;4901971;29;45472;-90
2021/06/12 07:13:18;;;;;;;;;4.00;4.00;;;;;20.50;58.27;101927.06;4901084;29;45720;-94
2021/06/12 07:15:44;;;;;;;;;3.33;3.33;;;;;20.68;58.52;101946.56;4902319;29;45219;-85
2021/06/12 07:18:09;;;;;;;;;4.00;4.00;;;;;20.71;58.65;101963.47;4899178;29;46249;-86
2021/06/12 07:20:34;;;;;;;;;5.33;4.00;;;;;20.75;58.69;101963.47;4901017;29;45376;-85
2021/06/12 07:23:00;;;;;;;;;5.00;5.00;;;;;20.76;58.68;101967.91;4900977;29;45630;-85
2021/06/12 07:25:25;;;;;;;;;6.00;5.00;;;;;20.71;58.24;101946.53;4900798;29;45238;-84
2021/06/12 07:27:51;;;;;;;;;4.67;4.33;;;;;20.81;58.42;101969.63;4900565;29;46607;-84
2021/06/12 07:30:17;;;;;;;;;3.00;3.00;;;;;20.82;58.50;101973.22;4900506;29;45503;-85
2021/06/12 07:32:43;;;;;;;;;5.67;5.67;;;;;20.91;58.11;101983.84;4900825;29;45371;-85
2021/06/12 07:35:09;;;;;;;;;4.00;4.00;;;;;20.85;58.23;101972.31;4900969;29;45445;-84
2021/06/12 07:37:35;;;;;;;;;7.00;7.00;;;;;20.95;58.21;101998.09;4900421;29;46614;-84
2021/06/12 07:40:00;;;;;;;;;5.33;5.33;;;;;20.96;58.32;101990.97;4900685;29;45326;-83
2021/06/12 07:42:25;;;;;;;;;8.00;6.33;;;;;20.93;58.55;101991.84;4900148;29;45180;-84
2021/06/12 07:44:51;;;;;;;;;6.33;6.33;;;;;21.04;58.41;102010.53;4900624;29;45421;-83
2021/06/12 07:47:16;;;;;;;;;6.67;5.33;;;;;21.07;58.35;102023.00;4900000;29;46002;-83
2021/06/12 07:49:42;;;;;;;;;9.67;7.00;;;;;21.06;58.01;102011.41;4900478;29;45357;-86
2021/06/12 07:52:07;;;;;;;;;8.33;8.33;;;;;21.11;57.76;102014.94;4900467;28;45265;-82
2021/06/12 07:54:33;;;;;;;;;11.00;9.00;;;;;21.13;57.46;102007.78;4900945;29;45196;-82
2021/06/12 07:56:58;;;;;;;;;9.00;6.67;;;;;21.13;57.83;102009.59;4900292;29;46017;-85
2021/06/12 07:59:23;;;;;;;;;11.67;9.00;;;;;21.14;57.34;102017.59;4900062;28;45366;-86
2021/06/12 08:01:49;;;;;;;;;9.00;8.00;;;;;21.17;57.28;102025.59;4918019;28;45401;-86
2021/06/12 08:04:14;;;;;;;;;9.00;8.00;;;;;21.17;57.09;102024.72;4919417;28;45297;-86
2021/06/12 08:06:40;;;;;;;;;9.33;9.00;;;;;21.20;57.27;102027.38;4920414;28;45430;-85
2021/06/12 08:09:05;;;;;;;;;10.33;8.33;;;;;21.25;57.07;102027.34;4923029;28;45419;-87
2021/06/12 08:11:31;;;;;;;;;10.00;7.67;;;;;21.36;57.14;102017.44;4922907;28;45511;-86
2021/06/12 08:13:56;;;;;;;;;8.33;8.00;;;;;21.45;56.46;102018.28;4938748;28;45311;-86
2021/06/12 08:16:21;;;;;;;;;13.67;9.33;;;;;21.58;56.72;102027.97;4914359;28;45747;-85
2021/06/12 08:18:47;;;;;;;;;11.00;10.00;;;;;21.77;56.55;102029.59;4903976;28;45382;-86
2021/06/12 08:21:12;;;;;;;;;10.67;8.00;;;;;21.86;56.27;102016.16;4902461;29;45930;-87
2021/06/12 08:23:38;;;;;;;;;11.33;10.00;;;;;22.13;55.64;102037.31;4903803;28;45315;-86
2021/06/12 08:26:04;;;;;;;;;9.00;9.00;;;;;22.12;55.39;102024.84;4903327;28;45450;-86
2021/06/12 08:28:29;;;;;;;;;10.67;10.67;;;;;22.26;55.29;102032.72;4903144;29;45398;-86
2021/06/12 08:30:56;;;;;;;;;13.00;12.00;;;;;22.31;55.25;102018.38;4903070;28;45351;-86
2021/06/12 08:33:21;;;;;;;;;16.00;12.00;;;;;22.55;54.89;102023.44;4903484;29;45282;-86
2021/06/12 08:35:47;;;;;;;;;16.33;12.33;;;;;22.73;54.38;102027.72;4901460;29;48040;-86
2021/06/12 08:38:12;;;;;;;;;17.67;14.00;;;;;22.96;53.57;102039.03;4902982;28;45324;-86
2021/06/12 08:40:38;;;;;;;;;13.00;12.00;;;;;23.15;53.89;102028.94;4901671;29;45328;-86
2021/06/12 08:43:05;;;;;;;;;17.00;13.33;;;;;23.39;53.98;102017.84;4901792;28;45462;-87
2021/06/12 08:45:32;;;;;;;;;15.00;12.67;;;;;23.73;53.07;102016.44;4901422;29;47596;-86
2021/06/12 08:47:59;;;;;;;;;14.00;11.33;;;;;23.83;51.92;102031.44;4902727;29;45351;-86
2021/06/12 08:50:25;;;;;;;;;15.33;15.33;;;;;24.05;52.61;102041.78;4901142;29;45308;-86
2021/06/12 08:52:54;;;;;;;;;16.33;14.67;;;;;24.51;51.65;102026.56;4901738;29;45610;-87
2021/06/12 08:55:19;;;;;;;;;15.00;12.00;;;;;24.73;51.48;102052.13;4903482;28;46393;-81
2021/06/12 08:57:46;;;;;;;;;16.67;15.67;;;;;24.70;50.84;102055.78;4903687;28;45468;-88
2021/06/12 09:00:13;;;;;;;;;20.00;15.00;;;;;24.58;50.42;102045.28;4903516;29;45421;-88
2021/06/12 09:03:03;;;;;;;;;17.00;14.33;;;;;24.69;50.92;102053.09;4903121;28;45345;-79
2021/06/12 09:05:38;;;;;;;;;18.00;16.00;;;;;24.69;50.54;102048.63;4904071;29;45409;-80
2021/06/12 09:08:09;;;;;;;;;16.33;14.67;;;;;24.74;50.69;102048.53;4904629;28;45251;-82
2021/06/12 09:10:42;;;;;;;;;26.67;21.67;;;;;24.70;50.15;102046.81;4902170;29;45364;-85
2021/06/12 09:13:08;;;;;;;;;19.00;15.67;;;;;24.86;51.32;102050.94;4902695;28;45390;-88
2021/06/12 09:15:33;;;;;;;;;17.67;17.67;;;;;24.98;50.93;102039.06;4903547;28;45489;-86
2021/06/12 09:17:59;;;;;;;;;18.33;16.00;;;;;25.03;50.24;102038.06;4902422;28;45318;-86
2021/06/12 09:20:27;;;;;;;;;15.33;14.00;;;;;25.01;49.83;102040.78;4903167;29;45236;-89
2021/06/12 09:23:17;;;;;;;;;17.67;16.67;;;;;24.98;49.02;102040.88;4904235;29;45450;-89
2021/06/12 09:25:45;;;;;;;;;17.00;15.33;;;;;25.09;49.16;102025.34;4901325;29;47991;-87
2021/06/12 09:28:11;;;;;;;;;18.00;17.00;;;;;25.01;49.10;102034.53;4903715;29;45244;-87
2021/06/12 09:30:37;;;;;;;;;17.00;16.00;;;;;25.05;48.94;102044.28;4902881;28;45268;-89
2021/06/12 09:33:03;;;;;;;;;22.33;17.67;;;;;24.87;48.84;102033.88;4902474;29;45458;-87
2021/06/12 09:35:37;;;;;;;;;17.00;15.33;;;;;24.79;49.14;102035.84;4902058;29;46156;-87
2021/06/12 09:38:22;;;;;;;;;18.33;14.67;;;;;24.81;49.40;102044.78;4903767;29;45276;-88
2021/06/12 09:40:48;;;;;;;;;17.00;15.67;;;;;24.97;49.55;102061.50;4903970;29;45319;-90
2021/06/12 09:43:25;;;;;;;;;15.67;13.33;;;;;24.97;49.27;102037.31;4903646;29;45509;-91
2021/06/12 09:45:50;;;;;;;;;17.33;16.33;;;;;25.07;48.99;102054.09;4907302;28;45381;-90
2021/06/12 09:48:18;;;;;;;;;20.00;15.67;;;;;25.04;48.74;102037.16;4920213;23;45416;-90
2021/06/12 09:50:45;;;;;;;;;18.67;15.67;;;;;25.25;48.84;102049.22;4921450;28;45438;-90
2021/06/12 09:53:14;;;;;;;;;21.00;16.67;;;;;25.43;48.88;102045.19;4906855;28;45474;-90
2021/06/12 09:55:40;;;;;;;;;18.67;16.00;;;;;25.58;48.80;102031.38;4904225;29;47220;-90
2021/06/12 09:58:06;;;;;;;;;17.00;14.67;;;;;25.79;48.37;102029.97;4906643;28;45492;-91
2021/06/12 10:00:41;;;;;;;;;19.33;18.33;;;;;26.20;47.10;102055.81;4907425;29;45370;-91
2021/06/12 10:03:28;;;;;;;;;21.33;18.33;;;;;26.50;47.79;102042.44;4907220;29;45466;-91
2021/06/12 10:06:17;;;;;;;;;20.00;16.67;;;;;26.81;47.18;102051.41;4911054;29;47365;-90
2021/06/12 10:08:45;;;;;;;;;16.67;14.00;;;;;27.04;46.28;102047.09;4904440;28;45279;-92
2021/06/12 10:11:13;;;;;;;;;14.33;14.33;;;;;27.30;46.52;102037.31;4903057;29;45493;-91
2021/06/12 10:13:39;;;;;;;;;17.00;12.00;;;;;27.53;45.97;102030.28;4903742;29;45431;-91
2021/06/12 10:16:05;;;;;;;;;14.67;14.67;;;;;27.79;43.91;102050.13;4904451;28;45962;-91
2021/06/12 10:18:32;;;;;;;;;15.33;13.67;;;;;27.72;45.41;102045.84;4902722;29;45348;-91
2021/06/12 10:20:59;;;;;;;;;16.00;15.00;;;;;27.89;44.54;102056.09;4902209;29;45405;-92
2021/06/12 10:23:25;;;;;;;;;16.00;13.67;;;;;27.92;44.51;102044.28;4903974;28;45301;-90
2021/06/12 10:25:52;;;;;;;;;15.00;13.33;;;;;28.04;44.04;102046.56;4904991;29;48420;-91
2021/06/12 10:28:21;;;;;;;;;14.33;12.33;;;;;28.20;43.88;102059.50;4906464;28;45323;-91
2021/06/12 10:30:47;;;;;;;;;16.00;12.67;;;;;28.36;44.45;102056.22;4902544;28;45240;-92
2021/06/12 10:33:17;;;;;;;;;14.00;14.00;;;;;28.49;43.49;102067.50;4906548;28;45232;-91
2021/06/12 10:35:43;;;;;;;;;17.00;14.00;;;;;28.40;43.87;102052.50;4920530;28;47391;-91
2021/06/12 10:38:16;;;;;;;;;16.33;13.67;;;;;28.39;43.74;102064.22;4903589;29;45372;-92
2021/06/12 10:40:45;;;;;;;;;19.67;13.33;;;;;28.23;42.63;102051.28;4903408;28;45511;-90
2021/06/12 10:43:12;;;;;;;;;13.33;13.33;;;;;28.25;43.33;102081.84;4902178;28;45392;-92
2021/06/12 10:45:39;;;;;;;;;12.67;12.00;;;;;28.16;43.40;102068.66;4901159;29;47255;-91
2021/06/12 10:48:05;;;;;;;;;10.67;9.33;;;;;28.19;43.16;102071.25;4900736;29;45825;-91
2021/06/12 10:50:42;;;;;;;;;10.00;7.00;;;;;28.25;42.94;102060.22;4903047;28;45323;-91
2021/06/12 10:53:18;;;;;;;;;11.00;10.67;;;;;28.32;42.64;102071.69;4902670;28;45374;-90
2021/06/12 10:55:51;;;;;;;;;13.00;10.00;;;;;28.37;43.43;102072.38;4900742;29;47646;-92
2021/06/12 10:58:29;;;;;;;;;10.00;7.67;;;;;28.52;40.61;102078.19;4900945;29;46180;-92
2021/06/12 11:01:21;;;;;;;;;12.00;10.33;;;;;28.48;42.31;102080.13;4902050;29;45425;-90
2021/06/12 11:04:07;;;;;;;;;12.00;11.33;;;;;28.24;42.34;102080.06;4902683;28;45503;-93
2021/06/12 11:06:49;;;;;;;;;12.00;10.00;;;;;28.09;42.28;102074.28;4916895;28;48148;-93
2021/06/12 11:09:14;;;;;;;;;7.00;7.00;;;;;28.04;42.46;102091.59;4901138;29;45403;-92
2021/06/12 11:11:41;;;;;;;;;9.33;9.00;;;;;27.98;42.42;102076.50;4901669;29;45493;-91
2021/06/12 11:14:24;;;;;;;;;12.67;11.00;;;;;28.05;42.79;102087.94;4917453;28;45524;-91
2021/06/12 11:17:07;;;;;;;;;13.00;10.00;;;;;28.03;42.70;102085.31;4902517;28;46602;-91
2021/06/12 11:19:36;;;;;;;;;10.00;9.33;;;;;27.97;42.68;102082.81;4902921;29;45382;-93
2021/06/12 11:22:32;;;;;;;;;10.67;8.00;;;;;27.99;42.38;102078.25;4902542;29;45481;-92
2021/06/12 11:25:27;;;;;;;;;11.00;9.00;;;;;27.90;42.59;102062.38;4902496;29;45411;-89
2021/06/12 11:28:14;;;;;;;;;12.33;10.00;;;;;27.90;42.47;102081.28;4901523;29;45413;-92
2021/06/12 11:30:40;;;;;;;;;11.33;9.33;;;;;27.76;42.58;102061.03;4900840;29;45454;-91
2021/06/12 11:33:05;;;;;;;;;10.33;10.33;;;;;27.75;42.64;102075.50;4901035;29;45449;-94
2021/06/12 11:35:49;;;;;;;;;10.67;8.33;;;;;27.65;42.24;102074.88;4902893;28;45255;-91
2021/06/12 11:38:17;;;;;;;;;8.33;6.67;;;;;27.49;42.68;102055.59;4902041;29;47917;-92
2021/06/12 11:41:15;;;;;;;;;7.33;7.00;;;;;27.57;42.75;102077.84;4901219;29;45533;-91